AER66 PACD-PASN
Flight info
| Callsign | AER66 |
|---|---|
| Flight time | 1h 4m |
| Altitude | 20000 |
| Route | CDB SPY |
| Aircraft | B350/L-SBGRW/S |
Departure
| Time | 2026-05-07 01:38 |
|---|---|
| Airport | Cold Bay Airport (PACD) |
Arrival
| Time | 2026-05-07 02:43 |
|---|---|
| Airport | St Paul Island Airport (PASN) |
| Time | Latitude | Longitude | Altitude | Speed | Heading |
|---|---|---|---|---|---|
| 2026-05-07 01:28 | 55.20233 | -162.71968 | 95 ft | 0 kts | 249° |
| 2026-05-07 01:35 | 55.20204 | -162.71979 | 96 ft | 8 kts | 172° |
| 2026-05-07 01:35 | 55.20156 | -162.72012 | 96 ft | 10 kts | 276° |
| 2026-05-07 01:35 | 55.20169 | -162.72097 | 95 ft | 6 kts | 257° |
| 2026-05-07 01:35 | 55.20160 | -162.72145 | 95 ft | 0 kts | 247° |
| 2026-05-07 01:37 | 55.20153 | -162.72176 | 95 ft | 9 kts | 250° |
| 2026-05-07 01:37 | 55.20138 | -162.72322 | 94 ft | 14 kts | 302° |
| 2026-05-07 01:37 | 55.20318 | -162.72473 | 93 ft | 68 kts | 338° |
| 2026-05-07 01:37 | 55.20992 | -162.72938 | 90 ft | 133 kts | 339° |
| 2026-05-07 01:38 | 55.21970 | -162.73537 | 313 ft | 162 kts | 341° |
| 2026-05-07 01:38 | 55.23100 | -162.74154 | 838 ft | 172 kts | 340° |
| 2026-05-07 01:38 | 55.24249 | -162.74812 | 1493 ft | 174 kts | 340° |
| 2026-05-07 01:38 | 55.25365 | -162.75524 | 2249 ft | 166 kts | 334° |
| 2026-05-07 01:39 | 55.26392 | -162.76440 | 2736 ft | 172 kts | 329° |
| 2026-05-07 01:39 | 55.27288 | -162.77815 | 3194 ft | 174 kts | 301° |
| 2026-05-07 01:39 | 55.27854 | -162.79678 | 3730 ft | 171 kts | 293° |
| 2026-05-07 01:39 | 55.28337 | -162.81630 | 4249 ft | 177 kts | 291° |
| 2026-05-07 01:40 | 55.28802 | -162.83622 | 4889 ft | 174 kts | 292° |
| 2026-05-07 01:40 | 55.29305 | -162.85566 | 5464 ft | 177 kts | 294° |
| 2026-05-07 01:40 | 55.29840 | -162.87541 | 5992 ft | 180 kts | 295° |
| 2026-05-07 01:40 | 55.30380 | -162.89513 | 6558 ft | 179 kts | 294° |
| 2026-05-07 01:41 | 55.30950 | -162.91486 | 7063 ft | 183 kts | 296° |
| 2026-05-07 01:41 | 55.31516 | -162.93504 | 7588 ft | 185 kts | 295° |
| 2026-05-07 01:41 | 55.32094 | -162.95510 | 8150 ft | 184 kts | 295° |
| 2026-05-07 01:41 | 55.32673 | -162.97528 | 8648 ft | 187 kts | 295° |
| 2026-05-07 01:42 | 55.33292 | -162.99567 | 9138 ft | 190 kts | 298° |
| 2026-05-07 01:42 | 55.33921 | -163.01602 | 9673 ft | 189 kts | 296° |
| 2026-05-07 01:42 | 55.34518 | -163.03643 | 10165 ft | 191 kts | 295° |
| 2026-05-07 01:42 | 55.35109 | -163.05756 | 10628 ft | 194 kts | 294° |
| 2026-05-07 01:43 | 55.35701 | -163.07896 | 11132 ft | 195 kts | 296° |
| 2026-05-07 01:43 | 55.36324 | -163.10015 | 11615 ft | 196 kts | 296° |
| 2026-05-07 01:43 | 55.36962 | -163.12160 | 12084 ft | 198 kts | 297° |
| 2026-05-07 01:43 | 55.37637 | -163.14283 | 12548 ft | 200 kts | 300° |
| 2026-05-07 01:44 | 55.38330 | -163.16412 | 13011 ft | 201 kts | 297° |
| 2026-05-07 01:44 | 55.38993 | -163.18590 | 13481 ft | 202 kts | 296° |
| 2026-05-07 01:44 | 55.39626 | -163.20817 | 13928 ft | 204 kts | 295° |
| 2026-05-07 01:44 | 55.40267 | -163.23022 | 14364 ft | 206 kts | 296° |
| 2026-05-07 01:45 | 55.40945 | -163.25250 | 14807 ft | 207 kts | 297° |
| 2026-05-07 01:45 | 55.41618 | -163.27504 | 15242 ft | 209 kts | 296° |
| 2026-05-07 01:45 | 55.42281 | -163.29797 | 15682 ft | 211 kts | 296° |
| 2026-05-07 01:45 | 55.42939 | -163.32116 | 16165 ft | 212 kts | 296° |
| 2026-05-07 01:46 | 55.43614 | -163.34430 | 16636 ft | 213 kts | 297° |
| 2026-05-07 01:46 | 55.44311 | -163.36716 | 17048 ft | 216 kts | 297° |
| 2026-05-07 01:46 | 55.45017 | -163.39104 | 17465 ft | 218 kts | 296° |
| 2026-05-07 01:46 | 55.45704 | -163.41486 | 17906 ft | 218 kts | 295° |
| 2026-05-07 01:47 | 55.46383 | -163.43876 | 18315 ft | 220 kts | 296° |
| 2026-05-07 01:47 | 55.47088 | -163.46282 | 18689 ft | 222 kts | 295° |
| 2026-05-07 01:47 | 55.47776 | -163.48732 | 19072 ft | 223 kts | 295° |
| 2026-05-07 01:47 | 55.48445 | -163.51170 | 19461 ft | 224 kts | 295° |
| 2026-05-07 01:48 | 55.49147 | -163.53636 | 19822 ft | 226 kts | 296° |
| 2026-05-07 01:48 | 55.49903 | -163.56126 | 19987 ft | 237 kts | 297° |
| 2026-05-07 01:48 | 55.50712 | -163.58757 | 20002 ft | 250 kts | 297° |
| 2026-05-07 01:48 | 55.51524 | -163.61532 | 20052 ft | 259 kts | 296° |
| 2026-05-07 01:49 | 55.52311 | -163.64449 | 20129 ft | 268 kts | 295° |
| 2026-05-07 01:49 | 55.53152 | -163.67470 | 20068 ft | 280 kts | 296° |
| 2026-05-07 01:49 | 55.54037 | -163.70592 | 20065 ft | 287 kts | 296° |
| 2026-05-07 01:49 | 55.54950 | -163.73776 | 20033 ft | 293 kts | 296° |
| 2026-05-07 01:50 | 55.55893 | -163.76989 | 20090 ft | 295 kts | 297° |
| 2026-05-07 01:50 | 55.56859 | -163.80219 | 20029 ft | 300 kts | 297° |
| 2026-05-07 01:50 | 55.57819 | -163.83466 | 19979 ft | 303 kts | 297° |
| 2026-05-07 01:50 | 55.58777 | -163.86766 | 20048 ft | 301 kts | 297° |
| 2026-05-07 01:51 | 55.59763 | -163.90065 | 20015 ft | 303 kts | 297° |
| 2026-05-07 01:51 | 55.60761 | -163.93364 | 19996 ft | 305 kts | 297° |
| 2026-05-07 01:51 | 55.61704 | -163.96713 | 20002 ft | 304 kts | 293° |
| 2026-05-07 01:51 | 55.62527 | -164.00178 | 20004 ft | 305 kts | 292° |
| 2026-05-07 01:52 | 55.63412 | -164.03586 | 20002 ft | 305 kts | 296° |
| 2026-05-07 01:52 | 55.64404 | -164.06907 | 20005 ft | 305 kts | 297° |
| 2026-05-07 01:52 | 55.65058 | -164.09112 | 20007 ft | 305 kts | 296° |
| 2026-05-07 01:52 | 55.66307 | -164.13581 | 20006 ft | 305 kts | 295° |
| 2026-05-07 01:53 | 55.67250 | -164.16962 | 20011 ft | 305 kts | 296° |
| 2026-05-07 01:53 | 55.68200 | -164.20326 | 20010 ft | 306 kts | 296° |
| 2026-05-07 01:53 | 55.69146 | -164.23696 | 20010 ft | 306 kts | 296° |
| 2026-05-07 01:53 | 55.70170 | -164.26995 | 20011 ft | 306 kts | 300° |
| 2026-05-07 01:54 | 55.70907 | -164.29135 | 20011 ft | 306 kts | 301° |
| 2026-05-07 01:54 | 55.71989 | -164.32373 | 20007 ft | 306 kts | 299° |
| 2026-05-07 01:54 | 55.73379 | -164.36776 | 20008 ft | 306 kts | 299° |
| 2026-05-07 01:54 | 55.74074 | -164.38962 | 20010 ft | 306 kts | 299° |
| 2026-05-07 01:55 | 55.75126 | -164.42243 | 20011 ft | 306 kts | 299° |
| 2026-05-07 01:55 | 55.76177 | -164.45527 | 20011 ft | 306 kts | 299° |
| 2026-05-07 01:55 | 55.77227 | -164.48816 | 20010 ft | 306 kts | 299° |
| 2026-05-07 01:55 | 55.78273 | -164.52099 | 20010 ft | 306 kts | 299° |
| 2026-05-07 01:56 | 55.79322 | -164.55400 | 20007 ft | 306 kts | 299° |
| 2026-05-07 01:56 | 55.80370 | -164.58693 | 20005 ft | 306 kts | 299° |
| 2026-05-07 01:56 | 55.81417 | -164.61993 | 20009 ft | 306 kts | 299° |
| 2026-05-07 01:56 | 55.82448 | -164.65244 | 20011 ft | 306 kts | 299° |
| 2026-05-07 01:57 | 55.83491 | -164.68543 | 20008 ft | 306 kts | 299° |
| 2026-05-07 01:57 | 55.84537 | -164.71849 | 20009 ft | 306 kts | 299° |
| 2026-05-07 01:57 | 55.85578 | -164.75149 | 20011 ft | 306 kts | 298° |
| 2026-05-07 01:57 | 55.86620 | -164.78457 | 20008 ft | 306 kts | 299° |
| 2026-05-07 01:58 | 55.87661 | -164.81762 | 20010 ft | 306 kts | 298° |
| 2026-05-07 01:58 | 55.88700 | -164.85069 | 20011 ft | 306 kts | 299° |
| 2026-05-07 01:58 | 55.89740 | -164.88379 | 20011 ft | 306 kts | 298° |
| 2026-05-07 01:58 | 55.90778 | -164.91696 | 20011 ft | 306 kts | 298° |
| 2026-05-07 01:59 | 55.91817 | -164.95011 | 20011 ft | 306 kts | 298° |
| 2026-05-07 01:59 | 55.92854 | -164.98332 | 20009 ft | 306 kts | 298° |
| 2026-05-07 01:59 | 55.93875 | -165.01600 | 20011 ft | 306 kts | 298° |
| 2026-05-07 01:59 | 55.94908 | -165.04921 | 20008 ft | 306 kts | 298° |
| 2026-05-07 02:00 | 55.95942 | -165.08242 | 20011 ft | 306 kts | 298° |
| 2026-05-07 02:00 | 55.96978 | -165.11566 | 20010 ft | 306 kts | 298° |
| 2026-05-07 02:00 | 55.98009 | -165.14895 | 20009 ft | 306 kts | 298° |
| 2026-05-07 02:00 | 55.99041 | -165.18217 | 20011 ft | 306 kts | 298° |
| 2026-05-07 02:01 | 56.00070 | -165.21545 | 20009 ft | 306 kts | 298° |
| 2026-05-07 02:01 | 56.01098 | -165.24874 | 20008 ft | 306 kts | 298° |
| 2026-05-07 02:01 | 56.02126 | -165.28203 | 20009 ft | 306 kts | 298° |
| 2026-05-07 02:01 | 56.03152 | -165.31534 | 20011 ft | 306 kts | 298° |
| 2026-05-07 02:02 | 56.04166 | -165.34823 | 20008 ft | 306 kts | 298° |
| 2026-05-07 02:02 | 56.05191 | -165.38166 | 20009 ft | 306 kts | 298° |
| 2026-05-07 02:02 | 56.06215 | -165.41498 | 20009 ft | 306 kts | 298° |
| 2026-05-07 02:02 | 56.07239 | -165.44842 | 20009 ft | 306 kts | 298° |
| 2026-05-07 02:03 | 56.08265 | -165.48189 | 20010 ft | 306 kts | 298° |
| 2026-05-07 02:03 | 56.09285 | -165.51532 | 20008 ft | 306 kts | 298° |
| 2026-05-07 02:03 | 56.10308 | -165.54880 | 20011 ft | 306 kts | 298° |
| 2026-05-07 02:03 | 56.11326 | -165.58227 | 20010 ft | 306 kts | 298° |
| 2026-05-07 02:04 | 56.12334 | -165.61536 | 20010 ft | 306 kts | 298° |
| 2026-05-07 02:04 | 56.13352 | -165.64884 | 20007 ft | 306 kts | 298° |
| 2026-05-07 02:04 | 56.14370 | -165.68237 | 20010 ft | 306 kts | 298° |
| 2026-05-07 02:04 | 56.15385 | -165.71593 | 20008 ft | 306 kts | 298° |
| 2026-05-07 02:05 | 56.16401 | -165.74949 | 20009 ft | 306 kts | 298° |
| 2026-05-07 02:05 | 56.17415 | -165.78304 | 20007 ft | 306 kts | 298° |
| 2026-05-07 02:05 | 56.18431 | -165.81669 | 20007 ft | 306 kts | 298° |
| 2026-05-07 02:05 | 56.19443 | -165.85030 | 20007 ft | 306 kts | 298° |
| 2026-05-07 02:06 | 56.20454 | -165.88389 | 20005 ft | 306 kts | 298° |
| 2026-05-07 02:06 | 56.21466 | -165.91757 | 20008 ft | 306 kts | 298° |
| 2026-05-07 02:06 | 56.22461 | -165.95080 | 20009 ft | 306 kts | 298° |
| 2026-05-07 02:06 | 56.23473 | -165.98450 | 20009 ft | 306 kts | 298° |
| 2026-05-07 02:07 | 56.24481 | -166.01821 | 20009 ft | 306 kts | 298° |
| 2026-05-07 02:07 | 56.26497 | -166.08575 | 20010 ft | 306 kts | 297° |
| 2026-05-07 02:07 | 56.27503 | -166.11947 | 20007 ft | 306 kts | 297° |
| 2026-05-07 02:08 | 56.28505 | -166.15320 | 20006 ft | 306 kts | 297° |
| 2026-05-07 02:08 | 56.29508 | -166.18700 | 20007 ft | 306 kts | 297° |
| 2026-05-07 02:08 | 56.30513 | -166.22083 | 20009 ft | 306 kts | 297° |
| 2026-05-07 02:08 | 56.31502 | -166.25427 | 20009 ft | 306 kts | 297° |
| 2026-05-07 02:09 | 56.32503 | -166.28803 | 20010 ft | 306 kts | 297° |
| 2026-05-07 02:09 | 56.33503 | -166.32194 | 20009 ft | 306 kts | 297° |
| 2026-05-07 02:09 | 56.34501 | -166.35579 | 20007 ft | 306 kts | 297° |
| 2026-05-07 02:09 | 56.35498 | -166.38964 | 20007 ft | 306 kts | 297° |
| 2026-05-07 02:10 | 56.36498 | -166.42364 | 20006 ft | 306 kts | 297° |
| 2026-05-07 02:10 | 56.37495 | -166.45757 | 20007 ft | 306 kts | 297° |
| 2026-05-07 02:10 | 56.38488 | -166.49153 | 20007 ft | 306 kts | 297° |
| 2026-05-07 02:10 | 56.39482 | -166.52545 | 20009 ft | 306 kts | 297° |
| 2026-05-07 02:11 | 56.40480 | -166.55952 | 20005 ft | 306 kts | 297° |
| 2026-05-07 02:11 | 56.41457 | -166.59304 | 20007 ft | 306 kts | 297° |
| 2026-05-07 02:11 | 56.42447 | -166.62699 | 20010 ft | 306 kts | 297° |
| 2026-05-07 02:11 | 56.43439 | -166.66110 | 20008 ft | 306 kts | 297° |
| 2026-05-07 02:12 | 56.44429 | -166.69510 | 20008 ft | 306 kts | 297° |
| 2026-05-07 02:12 | 56.45418 | -166.72922 | 20005 ft | 306 kts | 297° |
| 2026-05-07 02:12 | 56.46404 | -166.76338 | 20008 ft | 306 kts | 296° |
| 2026-05-07 02:12 | 56.47385 | -166.79762 | 20008 ft | 306 kts | 297° |
| 2026-05-07 02:13 | 56.48374 | -166.83167 | 20008 ft | 306 kts | 297° |
| 2026-05-07 02:13 | 56.49359 | -166.86571 | 20010 ft | 306 kts | 297° |
| 2026-05-07 02:13 | 56.50329 | -166.89941 | 20005 ft | 306 kts | 297° |
| 2026-05-07 02:13 | 56.51311 | -166.93355 | 20006 ft | 306 kts | 297° |
| 2026-05-07 02:14 | 56.52295 | -166.96777 | 20007 ft | 306 kts | 297° |
| 2026-05-07 02:14 | 56.53277 | -167.00187 | 20008 ft | 306 kts | 297° |
| 2026-05-07 02:14 | 56.54254 | -167.03617 | 20009 ft | 306 kts | 296° |
| 2026-05-07 02:14 | 56.55235 | -167.07048 | 20008 ft | 306 kts | 297° |
| 2026-05-07 02:15 | 56.56213 | -167.10470 | 20010 ft | 306 kts | 297° |
| 2026-05-07 02:15 | 56.57191 | -167.13897 | 20009 ft | 306 kts | 297° |
| 2026-05-07 02:15 | 56.58166 | -167.17320 | 20006 ft | 306 kts | 296° |
| 2026-05-07 02:15 | 56.59139 | -167.20749 | 20005 ft | 306 kts | 296° |
| 2026-05-07 02:16 | 56.60117 | -167.24189 | 20007 ft | 306 kts | 296° |
| 2026-05-07 02:16 | 56.61077 | -167.27578 | 20010 ft | 306 kts | 296° |
| 2026-05-07 02:16 | 56.62049 | -167.31013 | 20006 ft | 306 kts | 296° |
| 2026-05-07 02:16 | 56.63021 | -167.34445 | 20007 ft | 306 kts | 296° |
| 2026-05-07 02:17 | 56.63989 | -167.37882 | 20008 ft | 306 kts | 296° |
| 2026-05-07 02:17 | 56.64962 | -167.41333 | 20007 ft | 306 kts | 296° |
| 2026-05-07 02:17 | 56.65931 | -167.44778 | 20010 ft | 306 kts | 296° |
| 2026-05-07 02:17 | 56.66898 | -167.48213 | 20005 ft | 306 kts | 296° |
| 2026-05-07 02:18 | 56.67868 | -167.51664 | 20009 ft | 306 kts | 296° |
| 2026-05-07 02:18 | 56.68828 | -167.55105 | 20010 ft | 306 kts | 296° |
| 2026-05-07 02:18 | 56.69788 | -167.58556 | 20010 ft | 306 kts | 296° |
| 2026-05-07 02:18 | 56.70756 | -167.62009 | 20010 ft | 306 kts | 296° |
| 2026-05-07 02:19 | 56.71718 | -167.65457 | 20008 ft | 306 kts | 296° |
| 2026-05-07 02:19 | 56.72670 | -167.68872 | 20010 ft | 306 kts | 296° |
| 2026-05-07 02:19 | 56.73629 | -167.72327 | 20010 ft | 306 kts | 296° |
| 2026-05-07 02:19 | 56.74588 | -167.75778 | 20006 ft | 306 kts | 296° |
| 2026-05-07 02:20 | 56.75546 | -167.79239 | 20010 ft | 306 kts | 296° |
| 2026-05-07 02:20 | 56.76508 | -167.82706 | 20007 ft | 306 kts | 296° |
| 2026-05-07 02:20 | 56.77466 | -167.86177 | 20009 ft | 306 kts | 296° |
| 2026-05-07 02:20 | 56.78421 | -167.89639 | 20008 ft | 306 kts | 296° |
| 2026-05-07 02:21 | 56.79363 | -167.93062 | 20010 ft | 306 kts | 296° |
| 2026-05-07 02:21 | 56.80318 | -167.96530 | 20008 ft | 306 kts | 296° |
| 2026-05-07 02:21 | 56.81273 | -167.99993 | 20007 ft | 306 kts | 296° |
| 2026-05-07 02:21 | 56.82223 | -168.03464 | 20007 ft | 306 kts | 296° |
| 2026-05-07 02:22 | 56.83173 | -168.06938 | 20007 ft | 306 kts | 296° |
| 2026-05-07 02:22 | 56.84119 | -168.10414 | 20007 ft | 306 kts | 296° |
| 2026-05-07 02:22 | 56.85070 | -168.13887 | 20006 ft | 306 kts | 296° |
| 2026-05-07 02:22 | 56.86020 | -168.17359 | 20009 ft | 306 kts | 296° |
| 2026-05-07 02:23 | 56.86967 | -168.20847 | 20011 ft | 306 kts | 296° |
| 2026-05-07 02:23 | 56.87913 | -168.24332 | 20009 ft | 306 kts | 296° |
| 2026-05-07 02:23 | 56.88858 | -168.27825 | 20009 ft | 306 kts | 295° |
| 2026-05-07 02:23 | 56.89800 | -168.31312 | 20010 ft | 306 kts | 296° |
| 2026-05-07 02:24 | 56.90749 | -168.34802 | 20010 ft | 306 kts | 296° |
| 2026-05-07 02:24 | 56.91690 | -168.38286 | 20009 ft | 306 kts | 296° |
| 2026-05-07 02:24 | 56.92622 | -168.41734 | 20010 ft | 306 kts | 295° |
| 2026-05-07 02:24 | 56.93560 | -168.45226 | 20009 ft | 306 kts | 295° |
| 2026-05-07 02:25 | 56.94499 | -168.48723 | 20011 ft | 306 kts | 295° |
| 2026-05-07 02:25 | 56.95438 | -168.52217 | 20009 ft | 306 kts | 295° |
| 2026-05-07 02:25 | 56.96375 | -168.55713 | 20009 ft | 306 kts | 295° |
| 2026-05-07 02:25 | 56.97317 | -168.59225 | 20009 ft | 306 kts | 295° |
| 2026-05-07 02:26 | 56.98225 | -168.62734 | 19985 ft | 300 kts | 294° |
| 2026-05-07 02:26 | 56.99110 | -168.66194 | 19555 ft | 301 kts | 295° |
| 2026-05-07 02:26 | 57.00007 | -168.69679 | 19064 ft | 303 kts | 294° |
| 2026-05-07 02:26 | 57.00908 | -168.73171 | 18700 ft | 301 kts | 295° |
| 2026-05-07 02:27 | 57.01824 | -168.76602 | 18296 ft | 299 kts | 296° |
| 2026-05-07 02:27 | 57.02741 | -168.80031 | 17804 ft | 300 kts | 295° |
| 2026-05-07 02:27 | 57.03650 | -168.83468 | 17387 ft | 298 kts | 295° |
| 2026-05-07 02:27 | 57.04553 | -168.86815 | 17002 ft | 295 kts | 296° |
| 2026-05-07 02:28 | 57.05467 | -168.90203 | 16483 ft | 297 kts | 295° |
| 2026-05-07 02:28 | 57.06365 | -168.93621 | 16042 ft | 295 kts | 295° |
| 2026-05-07 02:28 | 57.07275 | -168.97006 | 15577 ft | 295 kts | 296° |
| 2026-05-07 02:28 | 57.08176 | -169.00394 | 15128 ft | 294 kts | 295° |
| 2026-05-07 02:29 | 57.09048 | -169.03775 | 14706 ft | 291 kts | 295° |
| 2026-05-07 02:29 | 57.09911 | -169.07107 | 14288 ft | 285 kts | 296° |
| 2026-05-07 02:29 | 57.10817 | -169.10348 | 13737 ft | 286 kts | 297° |
| 2026-05-07 02:29 | 57.11745 | -169.13581 | 13234 ft | 284 kts | 296° |
| 2026-05-07 02:30 | 57.12589 | -169.16797 | 12783 ft | 281 kts | 294° |
| 2026-05-07 02:30 | 57.13379 | -169.20079 | 12313 ft | 279 kts | 292° |
| 2026-05-07 02:30 | 57.14179 | -169.23319 | 11831 ft | 278 kts | 295° |
| 2026-05-07 02:30 | 57.15003 | -169.26524 | 11385 ft | 275 kts | 294° |
| 2026-05-07 02:31 | 57.15807 | -169.29698 | 10961 ft | 272 kts | 294° |
| 2026-05-07 02:31 | 57.16617 | -169.32832 | 10474 ft | 271 kts | 295° |
| 2026-05-07 02:31 | 57.17462 | -169.35930 | 9984 ft | 270 kts | 296° |
| 2026-05-07 02:31 | 57.18301 | -169.39005 | 9570 ft | 266 kts | 296° |
| 2026-05-07 02:32 | 57.19135 | -169.42036 | 9148 ft | 264 kts | 296° |
| 2026-05-07 02:32 | 57.19936 | -169.45072 | 8681 ft | 263 kts | 294° |
| 2026-05-07 02:32 | 57.20708 | -169.48132 | 8248 ft | 261 kts | 294° |
| 2026-05-07 02:32 | 57.21468 | -169.51152 | 7877 ft | 258 kts | 294° |
| 2026-05-07 02:33 | 57.22222 | -169.54134 | 7465 ft | 256 kts | 294° |
| 2026-05-07 02:33 | 57.22951 | -169.57073 | 7101 ft | 253 kts | 294° |
| 2026-05-07 02:33 | 57.23691 | -169.59995 | 6765 ft | 250 kts | 294° |
| 2026-05-07 02:33 | 57.24431 | -169.62885 | 6488 ft | 247 kts | 295° |
| 2026-05-07 02:34 | 57.25166 | -169.65736 | 6184 ft | 246 kts | 294° |
| 2026-05-07 02:34 | 57.25891 | -169.68596 | 5886 ft | 245 kts | 294° |
| 2026-05-07 02:34 | 57.26609 | -169.71431 | 5686 ft | 242 kts | 294° |
| 2026-05-07 02:34 | 57.27321 | -169.74233 | 5417 ft | 241 kts | 295° |
| 2026-05-07 02:35 | 57.28036 | -169.77037 | 5087 ft | 242 kts | 295° |
| 2026-05-07 02:35 | 57.28751 | -169.79850 | 4799 ft | 241 kts | 294° |
| 2026-05-07 02:35 | 57.29448 | -169.82641 | 4551 ft | 238 kts | 294° |
| 2026-05-07 02:35 | 57.30157 | -169.85406 | 4258 ft | 238 kts | 295° |
| 2026-05-07 02:36 | 57.30865 | -169.88172 | 3959 ft | 237 kts | 295° |
| 2026-05-07 02:36 | 57.31584 | -169.90889 | 3649 ft | 234 kts | 295° |
| 2026-05-07 02:36 | 57.32169 | -169.93646 | 3257 ft | 234 kts | 283° |
| 2026-05-07 02:36 | 57.32441 | -169.96632 | 2888 ft | 234 kts | 277° |
| 2026-05-07 02:37 | 57.32646 | -169.99569 | 2721 ft | 226 kts | 277° |
| 2026-05-07 02:37 | 57.32880 | -170.02424 | 2486 ft | 224 kts | 279° |
| 2026-05-07 02:37 | 57.33153 | -170.05228 | 2406 ft | 217 kts | 281° |
| 2026-05-07 02:37 | 57.33447 | -170.07918 | 2393 ft | 211 kts | 281° |
| 2026-05-07 02:38 | 57.33745 | -170.10560 | 2349 ft | 208 kts | 282° |
| 2026-05-07 02:38 | 57.34014 | -170.13162 | 2359 ft | 203 kts | 271° |
| 2026-05-07 02:38 | 57.33761 | -170.15667 | 2424 ft | 198 kts | 246° |
| 2026-05-07 02:38 | 57.32925 | -170.17684 | 2321 ft | 202 kts | 217° |
| 2026-05-07 02:39 | 57.31589 | -170.18622 | 2006 ft | 211 kts | 190° |
| 2026-05-07 02:39 | 57.30128 | -170.18818 | 1846 ft | 207 kts | 182° |
| 2026-05-07 02:39 | 57.28716 | -170.18808 | 1726 ft | 201 kts | 181° |
| 2026-05-07 02:39 | 57.27335 | -170.18779 | 1556 ft | 198 kts | 184° |
| 2026-05-07 02:40 | 57.25983 | -170.19118 | 1473 ft | 193 kts | 192° |
| 2026-05-07 02:40 | 57.24678 | -170.19592 | 1420 ft | 189 kts | 193° |
| 2026-05-07 02:40 | 57.23399 | -170.20022 | 1367 ft | 180 kts | 191° |
| 2026-05-07 02:40 | 57.22260 | -170.20382 | 1172 ft | 151 kts | 193° |
| 2026-05-07 02:41 | 57.21307 | -170.20718 | 1010 ft | 133 kts | 193° |
| 2026-05-07 02:41 | 57.20412 | -170.21010 | 836 ft | 127 kts | 192° |
| 2026-05-07 02:41 | 57.19596 | -170.21301 | 658 ft | 114 kts | 194° |
| 2026-05-07 02:41 | 57.18842 | -170.21557 | 425 ft | 108 kts | 192° |
| 2026-05-07 02:42 | 57.18122 | -170.21777 | 248 ft | 106 kts | 193° |
| 2026-05-07 02:42 | 57.17388 | -170.22020 | 86 ft | 107 kts | 191° |
| 2026-05-07 02:42 | 57.16737 | -170.22233 | 50 ft | 79 kts | 189° |
| 2026-05-07 02:42 | 57.16266 | -170.22376 | 47 ft | 61 kts | 186° |
| 2026-05-07 02:43 | 57.15925 | -170.22477 | 49 ft | 31 kts | 188° |
| 2026-05-07 02:43 | 57.15780 | -170.22593 | 49 ft | 19 kts | 264° |
| 2026-05-07 02:43 | 57.15789 | -170.22780 | 49 ft | 11 kts | 282° |
| 2026-05-07 02:43 | 57.15758 | -170.22874 | 49 ft | 9 kts | 209° |
| 2026-05-07 02:44 | 57.15766 | -170.22939 | 49 ft | 1 kts | 353° |